Pittsburgh, Pennsylvania
Traffic Map
Current Weather Conditions
Pittsburgh, Pennsylvania
Clear
Clear
33°
Feels Like: 33°
Wind Chill: 33° Ceiling: Unl
Heat Index: 33° Visibility: 10mi
Dew Point: 22° Wind: 0mph
Humidity: 64% Direction: ° ()
Pressure: 30.15in Gusts: 0mph
Raw Report DataKAGC 260353Z 00000KT 10SM CLR 01/M06 A3015 RMK AO2 SLP223 T00061056
Traffic Incident Summary
Active as of:
Severity:
Category:
InformationThere was an issue retrieving the traffic information for this location. Please try a different location or try again shortly.
Advertisements
Track Severe Weather on mobile